Time;durP1;ratioP1;P1;durP2;ratioP2;P2;SDS_P1;SDS_P2;PMS_P1;PMS_P2;Temp;Humidity;BMP_temperature;BMP_pressure;BME280_temperature;BME280_humidity;BME280_pressure;Samples;Min_cycle;Max_cycle;Signal;HPM_P1;HPM_P2
2023/06/16 00:02:18;;;;;;;8.43;4.30;;;23.00;96.70;;;;;;4844882;29;20048;-68
2023/06/16 00:04:52;;;;;;;4.50;3.58;;;22.90;96.70;;;;;;4852058;29;20052;-69
2023/06/16 00:07:31;;;;;;;6.00;3.63;;;22.80;96.70;;;;;;4851599;29;20045;-69
2023/06/16 00:10:04;;;;;;;6.20;3.70;;;22.80;96.70;;;;;;4850948;29;20133;-68
2023/06/16 00:12:33;;;;;;;5.90;3.80;;;22.70;96.70;;;;;;4849288;29;20057;-68
2023/06/16 00:15:02;;;;;;;5.15;3.55;;;22.70;96.70;;;;;;4851935;29;20128;-68
2023/06/16 00:17:36;;;;;;;5.03;3.47;;;22.80;96.70;;;;;;4851725;29;20049;-68
2023/06/16 00:20:07;;;;;;;7.45;3.53;;;22.80;96.70;;;;;;4863181;29;20053;-68
2023/06/16 00:22:37;;;;;;;7.38;3.38;;;22.80;96.70;;;;;;4850594;29;20132;-68
2023/06/16 00:25:05;;;;;;;4.30;3.10;;;22.70;96.70;;;;;;4851304;29;20054;-68
2023/06/16 00:27:34;;;;;;;4.20;2.83;;;22.70;96.70;;;;;;4851636;29;20128;-69
2023/06/16 00:30:03;;;;;;;6.68;3.30;;;22.60;96.70;;;;;;4851317;29;20045;-68
2023/06/16 00:32:33;;;;;;;5.10;2.95;;;22.50;96.70;;;;;;4862218;29;20118;-69
2023/06/16 00:35:01;;;;;;;6.72;3.20;;;22.40;96.70;;;;;;4865248;29;20049;-69
2023/06/16 00:37:29;;;;;;;3.70;3.40;;;22.40;96.70;;;;;;4865085;29;20781;-69
2023/06/16 00:39:57;;;;;;;3.78;3.05;;;22.50;96.70;;;;;;4859377;29;20758;-69
2023/06/16 00:42:25;;;;;;;3.40;2.88;;;22.50;96.70;;;;;;4861460;29;20084;-69
2023/06/16 00:44:53;;;;;;;4.68;3.22;;;22.50;96.70;;;;;;4847717;29;20143;-69
2023/06/16 00:47:21;;;;;;;4.45;3.20;;;22.50;96.70;;;;;;4864429;29;20088;-69
2023/06/16 00:49:50;;;;;;;5.15;3.03;;;22.40;96.70;;;;;;4865407;29;20136;-69
2023/06/16 00:52:20;;;;;;;6.93;3.20;;;22.40;96.70;;;;;;4856775;29;20054;-69
2023/06/16 00:54:51;;;;;;;4.53;3.15;;;22.40;96.70;;;;;;4844193;29;20148;-69
2023/06/16 00:57:19;;;;;;;3.90;3.13;;;22.30;96.70;;;;;;4888321;29;20447;-69
2023/06/16 00:59:50;;;;;;;4.85;3.65;;;22.30;96.70;;;;;;4886302;29;20052;-69
2023/06/16 01:02:18;;;;;;;3.53;3.22;;;22.20;96.70;;;;;;4885046;29;20084;-69
2023/06/16 01:04:48;;;;;;;7.78;3.45;;;22.10;96.70;;;;;;4902163;29;20490;-69
2023/06/16 01:07:28;;;;;;;4.65;3.42;;;22.10;96.70;;;;;;4886999;29;20044;-69
2023/06/16 01:10:06;;;;;;;3.47;3.17;;;22.20;96.70;;;;;;4902517;29;20143;-69
2023/06/16 01:12:41;;;;;;;5.53;3.40;;;22.10;96.70;;;;;;4888363;29;20053;-69
2023/06/16 01:15:13;;;;;;;4.05;3.25;;;22.10;96.70;;;;;;4883585;29;20056;-69
2023/06/16 01:17:44;;;;;;;4.57;3.33;;;22.10;96.70;;;;;;4887575;29;20056;-69
2023/06/16 01:20:22;;;;;;;4.18;3.45;;;22.10;96.70;;;;;;4882280;29;20041;-69
2023/06/16 01:22:58;;;;;;;4.38;3.50;;;22.10;96.70;;;;;;4882699;29;20424;-68
2023/06/16 01:25:31;;;;;;;4.00;3.65;;;22.10;96.70;;;;;;4887832;29;20596;-68
2023/06/16 01:28:03;;;;;;;5.47;3.17;;;22.10;96.70;;;;;;4888203;29;20522;-69
2023/06/16 01:30:32;;;;;;;4.93;3.13;;;22.10;96.70;;;;;;4885379;29;20240;-68
2023/06/16 01:33:01;;;;;;;6.55;3.63;;;22.00;96.70;;;;;;4885681;29;20048;-68
2023/06/16 01:35:30;;;;;;;3.50;3.20;;;22.00;96.70;;;;;;4885789;29;20056;-68
2023/06/16 01:38:00;;;;;;;6.15;3.80;;;22.00;96.70;;;;;;4886744;29;20051;-68
2023/06/16 01:40:32;;;;;;;5.47;3.72;;;22.00;96.70;;;;;;4886098;29;20048;-68
2023/06/16 01:43:01;;;;;;;5.30;3.70;;;22.00;96.70;;;;;;4886703;29;20075;-68
2023/06/16 01:45:30;;;;;;;3.38;3.05;;;21.90;96.70;;;;;;4886131;29;20066;-69
2023/06/16 01:47:59;;;;;;;5.97;3.40;;;22.00;96.70;;;;;;4885509;29;20499;-68
2023/06/16 01:50:31;;;;;;;6.32;3.72;;;21.90;96.70;;;;;;4879626;29;20139;-68
2023/06/16 01:52:59;;;;;;;3.30;2.90;;;21.80;96.70;;;;;;4876957;29;20144;-69
2023/06/16 01:55:28;;;;;;;8.65;3.55;;;21.80;96.70;;;;;;4904822;29;20056;-68
2023/06/16 01:57:57;;;;;;;4.35;3.33;;;21.90;96.70;;;;;;4889814;29;20112;-68
2023/06/16 02:00:28;;;;;;;3.38;3.08;;;21.90;96.70;;;;;;4874166;29;20056;-68
2023/06/16 02:03:03;;;;;;;4.75;3.90;;;21.70;96.70;;;;;;4889857;29;20053;-68
2023/06/16 02:05:34;;;;;;;4.15;3.40;;;21.60;96.70;;;;;;4905232;29;20534;-68
2023/06/16 02:08:04;;;;;;;5.65;3.40;;;21.60;96.70;;;;;;4904865;29;20048;-68
2023/06/16 02:10:34;;;;;;;6.28;3.67;;;21.70;96.70;;;;;;4889546;29;20060;-68
2023/06/16 02:13:02;;;;;;;7.75;4.03;;;21.70;96.70;;;;;;4889145;29;20059;-69
2023/06/16 02:15:32;;;;;;;6.82;3.60;;;21.60;96.70;;;;;;4888677;29;20052;-68
2023/06/16 02:18:02;;;;;;;5.93;3.72;;;21.50;96.70;;;;;;4882541;29;20527;-68
2023/06/16 02:20:30;;;;;;;5.10;3.13;;;21.50;96.70;;;;;;4903584;29;20411;-68
2023/06/16 02:22:58;;;;;;;4.80;3.20;;;21.50;96.70;;;;;;4890406;29;20548;-69
2023/06/16 02:25:26;;;;;;;4.28;3.10;;;21.50;96.70;;;;;;4888624;29;20443;-68
2023/06/16 02:27:55;;;;;;;3.72;3.42;;;21.40;96.70;;;;;;4905025;29;20064;-68
2023/06/16 02:30:23;;;;;;;5.15;3.28;;;21.50;96.70;;;;;;4889310;29;20566;-68
2023/06/16 02:32:52;;;;;;;6.32;3.60;;;21.50;96.70;;;;;;4890348;29;20072;-68
2023/06/16 02:35:29;;;;;;;3.20;2.90;;;21.60;96.70;;;;;;4890358;29;20075;-68
2023/06/16 02:37:57;;;;;;;6.43;3.28;;;21.60;96.70;;;;;;4904310;29;20044;-68
2023/06/16 02:40:25;;;;;;;4.95;3.58;;;21.50;96.70;;;;;;4889372;29;20108;-68
2023/06/16 02:42:54;;;;;;;6.28;4.00;;;21.50;96.70;;;;;;4904719;29;20045;-69
2023/06/16 02:45:22;;;;;;;7.15;3.40;;;21.50;96.70;;;;;;4887468;29;20615;-68
2023/06/16 02:47:50;;;;;;;3.60;3.17;;;21.40;96.70;;;;;;4888570;29;20040;-68
2023/06/16 02:50:18;;;;;;;4.05;3.47;;;21.30;96.70;;;;;;4890740;29;21168;-69
2023/06/16 02:52:48;;;;;;;6.90;3.85;;;21.30;96.70;;;;;;4888117;29;20471;-68
2023/06/16 02:55:19;;;;;;;5.72;3.35;;;21.10;96.70;;;;;;4885211;29;20069;-69
2023/06/16 02:57:53;;;;;;;4.07;3.17;;;21.10;96.70;;;;;;4901970;29;20072;-67
2023/06/16 03:00:23;;;;;;;6.70;3.20;;;21.10;96.70;;;;;;4888383;29;20053;-68
2023/06/16 03:03:30;;;;;;;4.25;2.97;;;20.90;96.70;;;;;;4889296;29;20059;-68
2023/06/16 03:06:16;;;;;;;4.32;3.67;;;21.00;96.70;;;;;;4887543;29;20048;-68
2023/06/16 03:08:44;;;;;;;5.10;3.90;;;21.00;96.70;;;;;;4888928;29;20132;-68
2023/06/16 03:11:11;;;;;;;7.18;3.35;;;21.00;96.70;;;;;;4904037;29;20049;-68
2023/06/16 03:13:52;;;;;;;6.35;3.30;;;21.00;96.70;;;;;;4902870;29;20060;-68
2023/06/16 03:16:26;;;;;;;4.63;3.53;;;21.10;96.70;;;;;;4903037;29;20076;-68
2023/06/16 03:18:58;;;;;;;4.75;3.35;;;21.10;96.70;;;;;;4880558;29;20504;-68
2023/06/16 03:21:27;;;;;;;7.13;3.58;;;21.10;96.70;;;;;;4904324;29;20052;-68
2023/06/16 03:23:55;;;;;;;5.25;3.50;;;21.00;96.70;;;;;;4903276;29;20109;-68
2023/06/16 03:26:25;;;;;;;4.40;3.45;;;21.00;96.70;;;;;;4902829;29;20052;-68
2023/06/16 03:29:15;;;;;;;4.20;3.78;;;20.80;96.70;;;;;;4887813;29;20052;-68
2023/06/16 03:31:45;;;;;;;5.53;3.72;;;20.50;96.70;;;;;;4903937;29;20100;-68
2023/06/16 03:34:16;;;;;;;4.15;3.58;;;20.50;96.70;;;;;;4900321;29;20057;-68
2023/06/16 03:36:56;;;;;;;5.00;3.85;;;20.60;96.70;;;;;;4889410;29;20049;-68
2023/06/16 03:39:33;;;;;;;4.50;3.38;;;20.70;96.70;;;;;;4887762;29;21017;-69
2023/06/16 03:42:01;;;;;;;3.55;3.25;;;20.60;96.70;;;;;;4888459;29;20056;-69
2023/06/16 03:44:29;;;;;;;5.10;4.20;;;20.60;96.70;;;;;;4887242;29;20056;-69
2023/06/16 03:46:59;;;;;;;4.63;4.18;;;20.60;96.70;;;;;;4893085;29;20527;-68
2023/06/16 03:49:30;;;;;;;4.47;3.33;;;20.60;96.70;;;;;;4903802;29;20650;-68
2023/06/16 03:51:59;;;;;;;7.70;3.80;;;20.60;96.70;;;;;;4903359;29;20093;-69
2023/06/16 03:54:30;;;;;;;6.40;3.78;;;20.70;96.70;;;;;;4903627;29;20112;-69
2023/06/16 03:56:58;;;;;;;6.07;3.67;;;20.60;96.70;;;;;;4901165;29;20523;-69
2023/06/16 03:59:29;;;;;;;7.68;3.75;;;20.60;96.70;;;;;;4903418;29;20499;-69
2023/06/16 04:02:06;;;;;;;5.55;3.70;;;20.60;96.70;;;;;;4887583;29;20059;-69
2023/06/16 04:04:37;;;;;;;4.68;3.78;;;20.70;96.70;;;;;;4888387;29;20048;-68
2023/06/16 04:07:06;;;;;;;5.00;4.47;;;20.60;96.70;;;;;;4902045;29;20067;-68
2023/06/16 04:09:34;;;;;;;6.18;4.13;;;20.70;96.70;;;;;;4903186;29;20048;-69
2023/06/16 04:12:03;;;;;;;8.98;4.50;;;20.70;96.70;;;;;;4889130;29;20056;-69
2023/06/16 04:14:33;;;;;;;5.15;3.97;;;20.70;96.70;;;;;;4888990;29;20048;-69
2023/06/16 04:17:03;;;;;;;4.40;3.97;;;20.50;96.70;;;;;;4890674;29;20095;-69
2023/06/16 04:19:32;;;;;;;6.20;4.10;;;20.60;96.70;;;;;;4902801;29;20084;-69
2023/06/16 04:22:00;;;;;;;5.28;3.88;;;20.60;96.70;;;;;;4891060;29;20159;-68
2023/06/16 04:24:38;;;;;;;8.48;4.43;;;20.50;96.70;;;;;;4907700;29;20080;-69
2023/06/16 04:27:08;;;;;;;8.73;3.95;;;20.40;96.70;;;;;;4886074;29;20412;-68
2023/06/16 04:29:41;;;;;;;4.18;3.78;;;20.50;96.70;;;;;;4882243;29;20720;-69
2023/06/16 04:32:13;;;;;;;5.55;3.78;;;20.60;96.70;;;;;;4902809;29;20479;-69
2023/06/16 04:34:46;;;;;;;4.68;3.35;;;20.40;96.70;;;;;;4902856;29;20455;-69
2023/06/16 04:37:15;;;;;;;5.18;3.58;;;20.50;96.70;;;;;;4900973;29;20060;-69
2023/06/16 04:39:43;;;;;;;7.80;4.20;;;20.60;96.70;;;;;;4888372;29;20055;-69
2023/06/16 04:42:16;;;;;;;4.28;3.88;;;20.60;96.70;;;;;;4886974;29;20049;-69
2023/06/16 04:44:46;;;;;;;4.30;3.50;;;20.50;96.70;;;;;;4902975;29;20068;-69
2023/06/16 04:47:17;;;;;;;8.27;3.60;;;20.40;96.70;;;;;;4902706;29;20211;-68
2023/06/16 04:49:47;;;;;;;4.78;3.90;;;20.40;96.70;;;;;;4887253;29;20059;-69
2023/06/16 04:52:17;;;;;;;7.50;4.07;;;20.30;96.70;;;;;;4902261;29;20152;-68
2023/06/16 04:54:47;;;;;;;9.55;4.50;;;20.50;96.70;;;;;;4887420;29;20504;-69
2023/06/16 04:57:16;;;;;;;8.82;4.20;;;20.70;96.70;;;;;;4886326;29;20064;-68
2023/06/16 04:59:45;;;;;;;8.13;4.85;;;20.80;96.70;;;;;;4890411;29;20045;-68
2023/06/16 05:02:14;;;;;;;6.63;4.38;;;20.70;96.70;;;;;;4901950;29;20063;-69
2023/06/16 05:04:43;;;;;;;8.27;4.03;;;20.60;96.70;;;;;;4902369;29;20041;-68
2023/06/16 05:07:14;;;;;;;6.57;4.22;;;20.70;96.70;;;;;;4888029;29;20059;-69
2023/06/16 05:09:42;;;;;;;8.13;4.95;;;20.70;96.70;;;;;;4886978;29;20072;-69
2023/06/16 05:12:10;;;;;;;6.00;4.45;;;20.70;96.70;;;;;;4902298;29;20055;-69
2023/06/16 05:14:38;;;;;;;6.93;4.63;;;20.80;96.70;;;;;;4887884;29;20052;-69
2023/06/16 05:17:09;;;;;;;7.45;4.57;;;20.80;96.70;;;;;;4902228;29;20737;-69
2023/06/16 05:19:37;;;;;;;6.57;4.32;;;20.70;96.70;;;;;;4886088;29;20056;-69
2023/06/16 05:22:07;;;;;;;7.32;5.05;;;20.80;96.70;;;;;;4901707;29;20063;-69
2023/06/16 05:24:36;;;;;;;8.13;4.63;;;20.60;96.70;;;;;;4902443;29;20108;-69
2023/06/16 05:27:06;;;;;;;7.38;4.35;;;20.40;96.70;;;;;;4903811;29;20047;-69
2023/06/16 05:29:34;;;;;;;5.57;4.40;;;20.20;96.70;;;;;;4905058;29;20048;-68
2023/06/16 05:32:04;;;;;;;6.60;4.80;;;19.90;96.70;;;;;;4904795;29;20567;-68
2023/06/16 05:34:32;;;;;;;8.00;4.70;;;19.90;96.70;;;;;;4887614;29;20052;-68
2023/06/16 05:37:00;;;;;;;8.18;5.10;;;19.80;96.70;;;;;;4905710;29;20059;-68
2023/06/16 05:39:31;;;;;;;5.20;4.15;;;19.90;96.70;;;;;;4890123;29;20114;-68
2023/06/16 05:42:01;;;;;;;8.43;4.95;;;20.30;96.70;;;;;;4906441;29;20108;-69
2023/06/16 05:44:30;;;;;;;10.45;4.97;;;20.60;96.70;;;;;;4905342;29;20076;-69
2023/06/16 05:46:58;;;;;;;4.90;4.15;;;20.70;96.70;;;;;;4874044;29;20499;-69
2023/06/16 05:49:26;;;;;;;7.05;5.10;;;20.70;96.70;;;;;;4891372;29;20048;-68
2023/06/16 05:51:56;;;;;;;5.53;5.00;;;20.70;96.70;;;;;;4905643;29;20101;-68
2023/06/16 05:54:24;;;;;;;5.03;4.53;;;20.70;96.70;;;;;;4891674;29;20044;-69
2023/06/16 05:56:56;;;;;;;7.05;4.93;;;20.90;96.70;;;;;;4890773;29;20057;-69
2023/06/16 05:59:25;;;;;;;10.85;5.60;;;21.00;96.70;;;;;;4904453;29;20072;-69
2023/06/16 06:01:53;;;;;;;8.57;5.57;;;21.00;96.70;;;;;;4887359;29;20164;-69
2023/06/16 06:04:27;;;;;;;6.53;4.90;;;21.00;96.70;;;;;;4905523;29;20079;-68
2023/06/16 06:06:58;;;;;;;6.97;5.90;;;21.00;96.70;;;;;;4902000;29;20132;-69
2023/06/16 06:09:26;;;;;;;6.78;5.05;;;21.10;96.70;;;;;;4900850;29;20125;-69
2023/06/16 06:11:56;;;;;;;7.10;5.68;;;21.20;96.70;;;;;;4905243;29;20044;-69
2023/06/16 06:14:25;;;;;;;12.15;7.03;;;21.30;96.70;;;;;;4904911;29;20837;-69
2023/06/16 06:16:53;;;;;;;9.90;5.53;;;21.30;96.70;;;;;;4887759;29;20123;-69
2023/06/16 06:19:24;;;;;;;11.43;7.00;;;21.30;96.70;;;;;;4891250;29;20518;-69
2023/06/16 06:21:54;;;;;;;9.82;5.10;;;21.40;96.70;;;;;;4886781;29;20048;-69
2023/06/16 06:24:23;;;;;;;8.90;5.97;;;21.50;96.70;;;;;;4884805;29;20049;-69
2023/06/16 06:26:51;;;;;;;8.75;6.30;;;21.60;96.70;;;;;;4889379;29;20051;-69
2023/06/16 06:29:21;;;;;;;8.60;5.63;;;21.60;96.70;;;;;;4905122;29;20249;-69
2023/06/16 06:31:50;;;;;;;7.68;5.45;;;21.60;96.70;;;;;;4888944;29;20056;-69
2023/06/16 06:34:18;;;;;;;9.48;5.50;;;21.50;96.70;;;;;;4884609;29;20414;-70
2023/06/16 06:36:52;;;;;;;8.90;5.43;;;21.60;96.70;;;;;;4908017;29;20066;-69
2023/06/16 06:39:20;;;;;;;6.68;5.45;;;21.70;96.70;;;;;;4912207;29;20645;-69
2023/06/16 06:41:49;;;;;;;6.40;4.88;;;21.70;96.70;;;;;;4903670;29;20131;-69
2023/06/16 06:44:44;;;;;;;6.28;5.22;;;21.70;96.70;;;;;;4874165;29;20100;-69
2023/06/16 06:47:12;;;;;;;5.72;4.65;;;21.70;96.70;;;;;;4880251;29;20060;-69
2023/06/16 06:49:43;;;;;;;5.97;5.15;;;21.90;96.70;;;;;;4887094;29;20045;-70
2023/06/16 06:52:11;;;;;;;7.93;5.15;;;21.90;96.70;;;;;;4887722;29;20131;-69
2023/06/16 06:54:39;;;;;;;7.38;5.60;;;21.90;96.70;;;;;;4890148;29;20079;-69
2023/06/16 06:57:07;;;;;;;9.23;5.65;;;22.00;96.70;;;;;;4889314;29;20063;-69
2023/06/16 06:59:35;;;;;;;7.18;5.68;;;22.00;96.70;;;;;;4885195;29;20059;-69
2023/06/16 07:02:06;;;;;;;6.95;5.00;;;22.10;96.70;;;;;;4888562;29;20051;-69
2023/06/16 07:04:36;;;;;;;9.15;5.70;;;22.20;96.70;;;;;;4890387;29;20594;-70
2023/06/16 07:07:05;;;;;;;7.47;5.70;;;22.30;96.70;;;;;;4890089;29;20056;-70
2023/06/16 07:09:33;;;;;;;6.97;6.10;;;22.30;96.70;;;;;;4888164;29;20049;-69
2023/06/16 07:12:01;;;;;;;10.15;5.82;;;22.30;96.70;;;;;;4887995;29;20068;-69
2023/06/16 07:14:29;;;;;;;6.97;6.03;;;22.10;96.70;;;;;;4889056;29;20051;-70
2023/06/16 07:16:57;;;;;;;7.38;5.03;;;22.20;96.70;;;;;;4903712;29;20059;-70
2023/06/16 07:19:27;;;;;;;6.20;5.32;;;22.30;96.70;;;;;;4889173;29;20056;-69
2023/06/16 07:21:56;;;;;;;8.05;5.45;;;22.50;96.70;;;;;;4889457;29;20539;-70
2023/06/16 07:24:25;;;;;;;7.05;6.20;;;22.60;96.70;;;;;;4872052;29;20053;-69
2023/06/16 07:26:53;;;;;;;6.20;5.40;;;22.70;96.70;;;;;;4888825;29;20060;-69
2023/06/16 07:29:21;;;;;;;7.82;5.65;;;22.70;96.70;;;;;;4889894;29;20049;-71
2023/06/16 07:31:49;;;;;;;6.95;5.55;;;22.80;96.70;;;;;;4889491;29;20042;-69
2023/06/16 07:34:17;;;;;;;8.45;5.78;;;22.80;96.70;;;;;;4887680;29;20072;-71
2023/06/16 07:36:46;;;;;;;8.43;6.82;;;22.90;96.70;;;;;;4886074;29;20138;-70
2023/06/16 07:39:14;;;;;;;8.27;6.03;;;22.80;96.70;;;;;;4889101;29;20068;-70
2023/06/16 07:41:42;;;;;;;6.40;5.70;;;22.80;96.70;;;;;;4883291;29;21147;-70
2023/06/16 07:44:10;;;;;;;6.78;5.80;;;22.90;96.70;;;;;;4888641;29;20123;-70
2023/06/16 07:46:53;;;;;;;6.53;5.57;;;23.00;96.70;;;;;;4886052;29;20640;-71
2023/06/16 07:49:22;;;;;;;6.60;5.85;;;23.10;96.70;;;;;;4886735;29;20117;-70
2023/06/16 07:51:52;;;;;;;9.10;6.15;;;23.30;96.70;;;;;;4903550;29;20638;-71
2023/06/16 07:54:22;;;;;;;7.88;5.97;;;23.40;96.70;;;;;;4889353;29;20076;-70
2023/06/16 07:56:50;;;;;;;6.45;5.68;;;23.50;96.70;;;;;;4903443;29;20064;-71
2023/06/16 07:59:18;;;;;;;6.78;6.07;;;23.50;96.70;;;;;;4889306;29;20068;-71
2023/06/16 08:02:01;;;;;;;7.07;6.22;;;23.60;96.70;;;;;;4888095;29;20052;-72
2023/06/16 08:04:29;;;;;;;9.05;6.22;;;23.60;96.70;;;;;;4883375;29;20376;-72
2023/06/16 08:07:01;;;;;;;9.27;6.82;;;23.70;96.70;;;;;;4887651;29;20624;-72
2023/06/16 08:09:29;;;;;;;11.07;6.90;;;23.70;96.70;;;;;;4888643;29;20052;-72
2023/06/16 08:11:57;;;;;;;7.63;6.35;;;23.70;96.70;;;;;;4887002;29;20492;-72
2023/06/16 08:14:27;;;;;;;6.38;5.53;;;23.80;96.70;;;;;;4880918;29;20154;-71
2023/06/16 08:16:55;;;;;;;7.95;5.18;;;23.90;96.70;;;;;;4879946;29;20610;-70
2023/06/16 08:19:24;;;;;;;7.60;5.60;;;23.90;96.70;;;;;;4888735;29;20087;-70
2023/06/16 08:21:52;;;;;;;6.28;5.05;;;23.90;96.70;;;;;;4902870;29;20040;-70
2023/06/16 08:24:21;;;;;;;7.32;5.97;;;24.00;96.70;;;;;;4888183;29;20735;-71
2023/06/16 08:26:49;;;;;;;12.40;5.78;;;24.10;96.70;;;;;;4888409;29;20050;-70
2023/06/16 08:29:19;;;;;;;7.95;5.47;;;24.10;96.70;;;;;;4901219;29;20108;-71
2023/06/16 08:31:47;;;;;;;8.25;5.60;;;24.10;96.70;;;;;;4893657;29;20044;-71
2023/06/16 08:34:16;;;;;;;6.80;5.18;;;24.30;96.70;;;;;;4880125;29;20055;-72
2023/06/16 08:36:44;;;;;;;6.57;4.80;;;24.40;96.70;;;;;;4885127;29;20128;-72
2023/06/16 08:39:12;;;;;;;7.90;4.80;;;24.40;96.70;;;;;;4887505;29;20048;-72
2023/06/16 08:41:42;;;;;;;5.47;4.80;;;24.60;96.70;;;;;;4886838;29;20041;-72
2023/06/16 08:44:13;;;;;;;7.43;5.22;;;24.60;96.70;;;;;;4902453;29;20052;-72
2023/06/16 08:46:40;;;;;;;6.60;4.38;;;24.70;96.70;;;;;;4887209;29;20045;-72
2023/06/16 08:49:09;;;;;;;5.55;3.90;;;24.70;96.70;;;;;;4888089;29;20036;-70
2023/06/16 08:51:40;;;;;;;6.65;5.20;;;24.70;96.70;;;;;;4887696;29;20048;-71
2023/06/16 08:54:10;;;;;;;5.57;4.80;;;24.70;96.70;;;;;;4888170;29;20135;-71
2023/06/16 08:56:39;;;;;;;7.05;4.95;;;24.80;96.70;;;;;;4886841;29;20529;-72
2023/06/16 08:59:11;;;;;;;5.80;4.28;;;24.90;96.70;;;;;;4888087;29;20056;-71
2023/06/16 09:01:39;;;;;;;8.00;4.30;;;25.00;96.70;;;;;;4888010;29;20053;-71
2023/06/16 09:04:13;;;;;;;6.75;4.47;;;25.10;96.70;;;;;;4886805;29;20068;-71
2023/06/16 09:06:45;;;;;;;4.93;4.10;;;25.30;96.70;;;;;;4888062;29;20060;-71
2023/06/16 09:09:14;;;;;;;6.35;4.22;;;25.30;96.70;;;;;;4884607;29;20389;-71
2023/06/16 09:11:42;;;;;;;6.63;4.07;;;25.50;96.70;;;;;;4879743;29;20055;-71
2023/06/16 09:14:14;;;;;;;6.10;3.75;;;25.60;96.70;;;;;;4881139;29;20387;-72
2023/06/16 09:16:57;;;;;;;5.82;3.90;;;25.60;96.70;;;;;;4901897;29;20052;-71
2023/06/16 09:19:25;;;;;;;4.70;3.80;;;25.50;96.70;;;;;;4886684;29;20618;-71
2023/06/16 09:21:54;;;;;;;5.90;3.55;;;25.70;96.70;;;;;;4888356;29;20123;-71
2023/06/16 09:24:26;;;;;;;9.13;3.80;;;25.80;96.70;;;;;;4888206;29;20049;-70
2023/06/16 09:26:57;;;;;;;5.07;3.70;;;25.90;96.70;;;;;;4887532;29;20052;-69
2023/06/16 09:29:28;;;;;;;3.95;3.25;;;26.00;96.70;;;;;;4887627;29;20060;-70
2023/06/16 09:32:08;;;;;;;4.63;3.80;;;26.00;96.70;;;;;;4884328;29;20076;-69
2023/06/16 09:34:37;;;;;;;5.22;3.72;;;26.10;96.70;;;;;;4898890;29;20049;-70
2023/06/16 09:37:27;;;;;;;6.45;4.00;;;26.20;96.70;;;;;;4901023;29;20052;-70
2023/06/16 09:40:06;;;;;;;4.00;3.45;;;26.30;96.70;;;;;;4887192;29;20067;-70
2023/06/16 09:42:35;;;;;;;4.05;3.53;;;26.30;96.70;;;;;;4883016;29;20125;-70
2023/06/16 09:45:20;;;;;;;4.97;3.90;;;26.40;96.70;;;;;;4885758;29;20127;-71
2023/06/16 09:47:49;;;;;;;3.85;3.30;;;26.40;96.70;;;;;;4887359;29;20053;-70
2023/06/16 09:50:19;;;;;;;4.38;3.63;;;26.50;96.70;;;;;;4887924;29;20052;-71
2023/06/16 09:52:48;;;;;;;5.35;3.50;;;26.60;96.70;;;;;;4887660;29;20553;-72
2023/06/16 09:55:16;;;;;;;5.82;3.90;;;26.60;96.70;;;;;;4887226;29;20096;-72
2023/06/16 09:57:46;;;;;;;4.88;3.58;;;26.60;96.70;;;;;;4886294;29;20547;-71
2023/06/16 10:00:17;;;;;;;4.45;3.90;;;26.60;96.70;;;;;;4901861;29;20080;-70
2023/06/16 10:02:48;;;;;;;5.15;3.60;;;26.70;96.70;;;;;;4887692;29;20059;-70
2023/06/16 10:05:18;;;;;;;5.05;4.50;;;26.90;96.70;;;;;;4886934;29;20052;-70
2023/06/16 10:07:50;;;;;;;3.95;3.50;;;27.00;96.70;;;;;;4886265;29;20531;-70
2023/06/16 10:10:22;;;;;;;5.40;3.42;;;27.20;96.70;;;;;;4901910;29;20075;-70
2023/06/16 10:12:53;;;;;;;4.00;3.60;;;27.30;96.70;;;;;;4890609;29;20047;-70
2023/06/16 10:15:23;;;;;;;4.93;3.47;;;27.40;96.70;;;;;;4891227;29;20040;-70
2023/06/16 10:18:03;;;;;;;3.90;3.50;;;27.30;96.70;;;;;;4890356;29;20055;-70
2023/06/16 10:20:40;;;;;;;4.28;3.60;;;27.40;96.70;;;;;;4904587;29;20059;-71
2023/06/16 10:23:09;;;;;;;6.15;3.40;;;27.40;96.70;;;;;;4905316;29;20052;-71
2023/06/16 10:25:40;;;;;;;3.72;3.42;;;27.50;96.70;;;;;;4890756;29;20506;-70
2023/06/16 10:28:14;;;;;;;5.80;3.40;;;27.60;96.70;;;;;;4890211;29;20052;-70
2023/06/16 10:30:43;;;;;;;5.22;3.17;;;27.70;96.70;;;;;;4904852;29;20131;-69
2023/06/16 10:33:19;;;;;;;4.03;3.00;;;27.80;96.70;;;;;;4890516;29;20048;-70
2023/06/16 10:35:55;;;;;;;6.63;3.67;;;27.90;96.70;;;;;;4890622;29;20053;-70
2023/06/16 10:38:38;;;;;;;5.25;3.00;;;27.90;96.70;;;;;;4890881;29;20335;-70
2023/06/16 10:41:12;;;;;;;6.35;3.40;;;28.10;96.70;;;;;;4889436;29;20857;-70
2023/06/16 10:43:40;;;;;;;3.78;3.30;;;28.20;96.70;;;;;;4889187;29;20044;-70
2023/06/16 10:46:15;;;;;;;5.80;3.72;;;28.10;96.70;;;;;;4889691;29;20070;-70
2023/06/16 10:49:09;;;;;;;6.50;3.60;;;28.20;96.70;;;;;;4890114;29;20044;-70
2023/06/16 10:51:41;;;;;;;5.68;3.40;;;28.40;96.70;;;;;;4890908;29;20067;-72
2023/06/16 10:54:09;;;;;;;4.70;3.30;;;28.50;96.70;;;;;;4888796;29;20096;-71
2023/06/16 10:57:03;;;;;;;3.78;3.38;;;28.50;96.70;;;;;;4890064;29;20061;-71
2023/06/16 10:59:56;;;;;;;3.42;2.92;;;28.60;96.70;;;;;;4889953;29;20049;-71
2023/06/16 11:02:27;;;;;;;3.85;3.22;;;28.80;96.70;;;;;;4883588;29;20048;-71
2023/06/16 11:05:14;;;;;;;3.20;3.00;;;29.00;96.70;;;;;;4888630;29;20048;-72
2023/06/16 11:07:46;;;;;;;3.45;3.05;;;29.20;96.70;;;;;;4888865;29;20048;-71
2023/06/16 11:10:18;;;;;;;5.72;3.00;;;29.20;96.70;;;;;;4890385;29;20129;-71
2023/06/16 11:12:47;;;;;;;4.25;3.30;;;29.30;96.70;;;;;;4888545;29;20044;-72
2023/06/16 11:15:19;;;;;;;4.20;3.35;;;29.40;96.70;;;;;;4888593;29;20052;-72
2023/06/16 11:17:47;;;;;;;5.63;3.78;;;29.40;96.70;;;;;;4889680;29;20060;-71
2023/06/16 11:20:17;;;;;;;3.15;2.85;;;29.30;96.70;;;;;;4887984;29;20048;-71
2023/06/16 11:22:46;;;;;;;5.10;3.50;;;29.20;96.70;;;;;;4888744;29;20052;-70
2023/06/16 11:25:14;;;;;;;4.80;2.90;;;29.10;96.70;;;;;;4872888;29;20044;-71
2023/06/16 11:27:47;;;;;;;4.93;2.97;;;29.10;96.70;;;;;;4903943;29;20056;-71
2023/06/16 11:30:16;;;;;;;4.35;3.53;;;29.40;96.70;;;;;;4890099;29;20071;-71
2023/06/16 11:32:47;;;;;;;4.13;3.10;;;29.60;96.70;;;;;;4887770;29;20045;-71
2023/06/16 11:35:18;;;;;;;3.03;2.72;;;29.70;96.70;;;;;;4889998;29;20447;-71
2023/06/16 11:37:49;;;;;;;5.50;2.85;;;29.90;96.70;;;;;;4890088;29;20491;-71
2023/06/16 11:40:20;;;;;;;3.05;2.85;;;30.10;96.70;;;;;;4889815;29;20067;-71
2023/06/16 11:42:57;;;;;;;3.35;2.83;;;30.30;96.70;;;;;;4887328;29;20048;-72
2023/06/16 11:45:27;;;;;;;2.83;2.58;;;30.20;96.70;;;;;;4882846;29;20132;-71
2023/06/16 11:47:57;;;;;;;3.42;2.72;;;30.10;96.70;;;;;;4889162;29;20048;-72
2023/06/16 11:50:27;;;;;;;3.55;2.85;;;30.10;96.70;;;;;;4887698;29;20061;-71
2023/06/16 11:52:56;;;;;;;3.38;2.58;;;30.00;96.70;;;;;;4881698;29;20088;-71
2023/06/16 11:55:25;;;;;;;4.32;2.83;;;30.10;96.70;;;;;;4871630;29;20088;-71
2023/06/16 11:57:59;;;;;;;3.30;3.00;;;30.20;96.70;;;;;;4889347;29;20056;-71
2023/06/16 12:00:28;;;;;;;3.67;2.30;;;30.20;96.70;;;;;;4889223;29;20052;-71
2023/06/16 12:02:57;;;;;;;2.90;2.65;;;30.20;96.70;;;;;;4888721;29;20116;-71
2023/06/16 12:05:28;;;;;;;2.50;2.30;;;30.20;96.70;;;;;;4889299;29;20109;-71
2023/06/16 12:07:56;;;;;;;3.38;2.40;;;30.30;96.70;;;;;;4880339;29;20051;-71
2023/06/16 12:10:25;;;;;;;3.05;2.40;;;30.30;96.70;;;;;;4889013;29;20056;-71
2023/06/16 12:12:53;;;;;;;3.33;2.25;;;30.30;96.70;;;;;;4887420;29;20423;-72
2023/06/16 12:15:23;;;;;;;4.40;2.92;;;30.40;96.70;;;;;;4888772;29;20044;-70
2023/06/16 12:17:55;;;;;;;3.80;2.80;;;30.40;96.70;;;;;;4887736;29;20123;-70
2023/06/16 12:20:23;;;;;;;2.50;2.30;;;30.40;96.70;;;;;;4903061;29;20056;-70
2023/06/16 12:22:56;;;;;;;2.83;2.25;;;30.50;96.70;;;;;;4888836;29;20140;-69
2023/06/16 12:25:26;;;;;;;5.05;2.30;;;30.60;96.70;;;;;;4902628;29;20056;-70
2023/06/16 12:27:57;;;;;;;5.72;2.45;;;30.60;96.70;;;;;;4888439;29;20174;-70
2023/06/16 12:30:34;;;;;;;5.43;2.92;;;30.70;96.70;;;;;;4887998;29;20052;-70
2023/06/16 12:33:09;;;;;;;3.78;2.88;;;30.90;96.70;;;;;;4880295;29;20147;-69
2023/06/16 12:35:37;;;;;;;6.55;3.00;;;31.00;96.70;;;;;;4871574;29;20052;-70
2023/06/16 12:38:07;;;;;;;3.45;2.65;;;31.10;96.70;;;;;;4887380;29;20072;-70
2023/06/16 12:40:35;;;;;;;3.42;2.55;;;31.00;96.70;;;;;;4886531;29;20053;-70
2023/06/16 12:43:23;;;;;;;5.97;2.90;;;31.10;96.70;;;;;;4888275;29;20076;-71
2023/06/16 12:45:52;;;;;;;6.43;2.72;;;31.40;96.70;;;;;;4886485;29;20427;-70
2023/06/16 12:48:21;;;;;;;4.00;3.22;;;31.50;96.70;;;;;;4902099;29;20060;-70
2023/06/16 12:50:49;;;;;;;3.55;2.60;;;31.50;96.70;;;;;;4887112;29;20046;-70
2023/06/16 12:53:18;;;;;;;3.03;2.72;;;31.40;96.70;;;;;;4888224;29;20309;-70
2023/06/16 12:55:46;;;;;;;4.78;2.75;;;31.10;96.70;;;;;;4886407;29;20411;-70
2023/06/16 12:58:14;;;;;;;4.70;3.58;;;30.80;96.70;;;;;;4888239;29;20055;-70
2023/06/16 13:00:42;;;;;;;5.28;3.20;;;30.50;96.70;;;;;;4887727;29;20051;-70
2023/06/16 13:03:10;;;;;;;3.47;2.92;;;30.10;96.70;;;;;;4887909;29;20120;-70
2023/06/16 13:05:42;;;;;;;4.70;3.00;;;29.90;96.70;;;;;;4900883;29;20063;-70